createdAt,value
2022-07-25T00:01:49.279Z,2.63
2022-07-25T00:04:20.495Z,2.47
2022-07-25T00:10:44.962Z,2.63
2022-07-25T00:13:12.862Z,2.73
2022-07-25T00:15:43.365Z,2.70
2022-07-25T00:18:11.190Z,2.87
2022-07-25T00:20:38.786Z,2.40
2022-07-25T00:23:06.200Z,3.00
2022-07-25T00:25:33.937Z,2.80
2022-07-25T00:28:01.734Z,2.77
2022-07-25T00:30:29.838Z,2.83
2022-07-25T00:32:57.469Z,2.97
2022-07-25T00:35:25.766Z,2.77
2022-07-25T00:37:53.346Z,2.43
2022-07-25T00:40:20.677Z,2.73
2022-07-25T00:42:48.958Z,2.53
2022-07-25T00:45:16.808Z,2.50
2022-07-25T00:47:45.005Z,2.60
2022-07-25T00:50:12.759Z,2.50
2022-07-25T00:52:40.321Z,2.67
2022-07-25T00:55:09.184Z,2.50
2022-07-25T00:57:36.803Z,2.73
2022-07-25T01:00:12.295Z,2.70
2022-07-25T01:02:40.396Z,2.63
2022-07-25T01:05:11.154Z,2.63
2022-07-25T01:07:41.345Z,2.30
2022-07-25T01:10:09.853Z,2.60
2022-07-25T01:12:50.608Z,2.70
2022-07-25T01:15:20.186Z,2.60
2022-07-25T01:17:48.246Z,2.40
2022-07-25T01:20:27.122Z,2.60
2022-07-25T01:22:55.821Z,2.60
2022-07-25T01:25:23.649Z,1.87
2022-07-25T01:27:55.475Z,2.60
2022-07-25T01:30:24.927Z,2.47
2022-07-25T01:32:53.262Z,2.50
2022-07-25T01:35:21.801Z,2.63
2022-07-25T01:37:49.941Z,2.70
2022-07-25T01:40:17.770Z,2.80
2022-07-25T01:42:46.385Z,2.60
2022-07-25T01:45:15.022Z,2.63
2022-07-25T01:47:42.361Z,2.60
2022-07-25T01:50:12.502Z,2.77
2022-07-25T01:52:40.379Z,2.67
2022-07-25T01:55:11.127Z,2.37
2022-07-25T01:57:40.562Z,2.90
2022-07-25T02:00:17.979Z,3.20
2022-07-25T02:02:47.011Z,2.47
2022-07-25T02:05:16.320Z,2.50
2022-07-25T02:07:43.766Z,2.80
2022-07-25T02:10:11.550Z,3.03
2022-07-25T02:12:39.678Z,2.80
2022-07-25T02:15:09.977Z,2.67
2022-07-25T02:17:40.965Z,2.33
2022-07-25T02:20:08.841Z,2.63
2022-07-25T02:22:36.475Z,2.73
2022-07-25T02:25:06.433Z,2.50
2022-07-25T02:27:34.018Z,2.87
2022-07-25T02:30:02.125Z,2.90
2022-07-25T02:32:29.689Z,2.30
2022-07-25T02:35:00.941Z,2.90
2022-07-25T02:37:29.139Z,2.57
2022-07-25T02:40:01.745Z,2.33
2022-07-25T02:42:36.642Z,2.33
2022-07-25T02:45:07.134Z,2.90
2022-07-25T02:47:34.784Z,2.87
2022-07-25T02:50:02.832Z,2.83
2022-07-25T02:52:30.704Z,2.83
2022-07-25T02:54:58.196Z,3.30
2022-07-25T02:57:26.135Z,3.20
2022-07-25T02:59:53.542Z,2.87
2022-07-25T03:02:21.139Z,3.20
2022-07-25T03:04:48.585Z,2.80
2022-07-25T03:07:16.236Z,2.60
2022-07-25T03:09:43.669Z,3.10
2022-07-25T03:12:11.536Z,2.70
2022-07-25T03:14:39.153Z,3.00
2022-07-25T03:17:06.497Z,2.90
2022-07-25T03:19:34.525Z,3.30
2022-07-25T03:22:04.466Z,3.20
2022-07-25T03:24:32.095Z,2.63
2022-07-25T03:27:02.179Z,3.07
2022-07-25T03:29:30.485Z,3.50
2022-07-25T03:31:58.199Z,3.30
2022-07-25T03:34:26.263Z,3.20
2022-07-25T03:36:54.379Z,2.97
2022-07-25T03:39:22.958Z,3.00
2022-07-25T03:41:50.866Z,2.97
2022-07-25T03:44:18.911Z,3.40
2022-07-25T03:46:47.449Z,3.65
2022-07-25T03:49:15.535Z,3.67
2022-07-25T03:51:44.315Z,3.80
2022-07-25T03:54:14.725Z,3.37
2022-07-25T03:56:53.463Z,4.30
2022-07-25T03:59:22.115Z,3.60
2022-07-25T04:01:51.205Z,3.67
2022-07-25T04:04:22.522Z,3.00
2022-07-25T04:06:50.470Z,3.40
2022-07-25T04:09:18.184Z,3.20
2022-07-25T04:11:45.588Z,3.30
2022-07-25T04:14:13.531Z,3.60
2022-07-25T04:16:41.533Z,3.03
2022-07-25T04:19:11.426Z,3.30
2022-07-25T04:21:40.224Z,3.33
2022-07-25T04:24:08.470Z,2.93
2022-07-25T04:26:36.349Z,3.20
2022-07-25T04:29:04.528Z,3.63
2022-07-25T04:31:32.248Z,3.33
2022-07-25T04:34:00.749Z,3.33
2022-07-25T04:36:28.623Z,3.77
2022-07-25T04:38:56.223Z,3.00
2022-07-25T04:41:23.696Z,3.60
2022-07-25T04:43:51.356Z,3.50
2022-07-25T04:46:22.288Z,2.97
2022-07-25T04:48:51.435Z,3.20
2022-07-25T04:51:20.147Z,3.50
2022-07-25T04:53:50.482Z,3.20
2022-07-25T04:56:18.397Z,3.50
2022-07-25T04:58:46.657Z,3.20
2022-07-25T05:01:14.254Z,3.30
2022-07-25T05:03:41.663Z,3.00
2022-07-25T05:06:20.039Z,3.00
2022-07-25T05:08:47.924Z,3.53
2022-07-25T05:11:15.605Z,3.30
2022-07-25T05:13:43.066Z,3.30
2022-07-25T05:16:11.351Z,3.23
2022-07-25T05:18:39.152Z,3.30
2022-07-25T05:21:10.074Z,3.93
2022-07-25T05:23:38.016Z,3.10
2022-07-25T05:26:05.809Z,3.10
2022-07-25T05:28:33.347Z,3.67
2022-07-25T05:31:01.935Z,3.67
2022-07-25T05:33:29.423Z,3.28
2022-07-25T05:35:57.145Z,3.30
2022-07-25T05:38:25.260Z,3.40
2022-07-25T05:40:54.248Z,3.53
2022-07-25T05:43:22.477Z,3.10
2022-07-25T05:45:50.478Z,3.30
2022-07-25T05:48:18.270Z,2.60
2022-07-25T05:50:46.898Z,3.22
2022-07-25T05:53:14.536Z,3.03
2022-07-25T05:55:42.224Z,3.47
2022-07-25T05:58:10.070Z,2.92
2022-07-25T06:00:38.427Z,2.50
2022-07-25T06:03:07.114Z,2.90
2022-07-25T06:05:41.814Z,2.67
2022-07-25T06:08:09.588Z,2.75
2022-07-25T06:10:37.564Z,2.35
2022-07-25T06:13:05.124Z,2.45
2022-07-25T06:15:33.392Z,2.60
2022-07-25T06:18:01.566Z,2.78
2022-07-25T06:20:29.389Z,2.28
2022-07-25T06:22:59.248Z,2.60
2022-07-25T06:25:28.339Z,2.30
2022-07-25T06:27:56.407Z,2.30
2022-07-25T06:30:24.691Z,2.42
2022-07-25T06:32:53.369Z,2.22
2022-07-25T06:35:21.111Z,2.42
2022-07-25T06:37:49.069Z,2.22
2022-07-25T06:40:16.953Z,1.85
2022-07-25T06:42:46.809Z,1.73
2022-07-25T06:45:16.278Z,1.88
2022-07-25T06:47:44.956Z,1.38
2022-07-25T06:50:15.618Z,1.38
2022-07-25T06:52:43.613Z,1.73
2022-07-25T06:55:12.476Z,1.50
2022-07-25T06:57:40.352Z,1.70
2022-07-25T07:00:10.770Z,1.58
2022-07-25T07:02:58.276Z,1.70
2022-07-25T07:05:27.962Z,2.05
2022-07-25T07:07:55.637Z,1.55
2022-07-25T07:10:28.016Z,1.40
2022-07-25T07:13:12.712Z,1.40
2022-07-25T07:15:45.601Z,1.40
2022-07-25T07:18:17.201Z,1.50
2022-07-25T07:20:45.212Z,1.17
2022-07-25T07:23:16.787Z,1.20
2022-07-25T07:25:47.631Z,1.10
2022-07-25T07:28:16.459Z,1.23
2022-07-25T07:31:15.686Z,1.33
2022-07-25T07:33:34.964Z,1.60
2022-07-25T07:36:03.640Z,1.52
2022-07-25T07:38:31.282Z,1.38
2022-07-25T07:40:59.050Z,1.10
2022-07-25T07:43:34.585Z,1.55
2022-07-25T07:46:02.766Z,1.20
2022-07-25T07:48:32.135Z,0.95
2022-07-25T07:51:02.434Z,1.30
2022-07-25T07:54:09.044Z,0.90
2022-07-25T07:56:38.707Z,1.20
2022-07-25T07:59:06.889Z,1.30
2022-07-25T08:01:35.842Z,1.00
2022-07-25T08:04:04.088Z,0.80
2022-07-25T08:06:33.751Z,0.70
2022-07-25T08:09:01.456Z,0.80
2022-07-25T08:11:30.272Z,0.77
2022-07-25T08:13:57.756Z,1.05
2022-07-25T08:16:25.605Z,1.00
2022-07-25T08:18:53.361Z,1.05
2022-07-25T08:21:21.564Z,1.00
2022-07-25T08:23:49.463Z,1.02
2022-07-25T08:26:31.615Z,0.98
2022-07-25T08:29:17.504Z,0.77
2022-07-25T08:31:47.154Z,1.42
2022-07-25T08:34:14.681Z,1.02
2022-07-25T08:36:42.622Z,1.08
2022-07-25T08:39:11.191Z,1.13
2022-07-25T08:41:42.977Z,0.98
2022-07-25T08:44:13.132Z,0.80
2022-07-25T08:46:42.989Z,0.90
2022-07-25T08:49:11.573Z,0.85
2022-07-25T08:51:40.782Z,1.10
2022-07-25T08:54:10.625Z,1.08
2022-07-25T08:56:38.270Z,0.85
2022-07-25T08:59:05.971Z,1.02
2022-07-25T09:01:35.130Z,1.13
2022-07-25T09:04:04.637Z,0.93
2022-07-25T09:06:32.620Z,0.80
2022-07-25T09:09:04.809Z,0.70
2022-07-25T09:11:38.340Z,1.30
2022-07-25T09:14:14.271Z,0.82
2022-07-25T09:16:45.140Z,0.93
2022-07-25T09:19:17.786Z,0.90
2022-07-25T09:21:47.177Z,0.80
2022-07-25T09:24:19.489Z,0.80
2022-07-25T09:26:53.569Z,0.70
2022-07-25T09:29:25.137Z,0.82
2022-07-25T09:31:56.316Z,0.90
2022-07-25T09:34:37.019Z,0.77
2022-07-25T09:37:08.400Z,0.93
2022-07-25T09:39:48.618Z,1.00
2022-07-25T09:42:27.679Z,0.82
2022-07-25T09:45:15.867Z,0.73
2022-07-25T09:48:05.200Z,0.50
2022-07-25T09:50:35.141Z,0.82
2022-07-25T09:53:04.142Z,0.70
2022-07-25T09:55:32.579Z,0.98
2022-07-25T09:58:00.049Z,0.70
2022-07-25T10:00:31.567Z,0.73
2022-07-25T10:03:27.006Z,0.80
2022-07-25T10:06:12.977Z,0.70
2022-07-25T10:08:43.308Z,1.15
2022-07-25T10:11:22.745Z,0.90
2022-07-25T10:13:51.801Z,0.95
2022-07-25T10:16:25.826Z,1.20
2022-07-25T10:18:59.202Z,0.90
2022-07-25T10:21:29.438Z,0.80
2022-07-25T10:24:03.672Z,1.30
2022-07-25T10:26:32.269Z,1.00
2022-07-25T10:29:00.781Z,0.90
2022-07-25T10:31:46.127Z,0.65
2022-07-25T10:34:17.274Z,0.80
2022-07-25T10:36:51.892Z,0.90
2022-07-25T10:39:22.182Z,0.90
2022-07-25T10:41:55.642Z,1.30
2022-07-25T10:44:23.580Z,0.80
2022-07-25T10:46:51.330Z,1.10
2022-07-25T10:49:32.060Z,1.13
2022-07-25T10:52:04.483Z,0.80
2022-07-25T10:54:39.769Z,0.80
2022-07-25T10:57:15.182Z,0.90
2022-07-25T10:59:45.786Z,1.13
2022-07-25T11:02:17.702Z,0.55
2022-07-25T11:04:47.912Z,0.90
2022-07-25T11:07:18.567Z,0.73
2022-07-25T11:09:56.456Z,1.00
2022-07-25T11:12:26.171Z,0.88
2022-07-25T11:15:01.429Z,0.80
2022-07-25T11:17:30.719Z,0.93
2022-07-25T11:20:00.207Z,0.82
2022-07-25T11:22:29.635Z,0.70
2022-07-25T11:24:58.594Z,0.80
2022-07-25T11:27:28.662Z,0.70
2022-07-25T11:30:14.570Z,0.85
2022-07-25T11:32:50.253Z,0.80
2022-07-25T11:35:30.658Z,0.73
2022-07-25T11:38:00.790Z,0.75
2022-07-25T11:40:33.830Z,0.60
2022-07-25T11:43:01.591Z,0.55
2022-07-25T11:45:34.327Z,0.70
2022-07-25T11:48:11.572Z,0.85
2022-07-25T11:50:44.533Z,0.80
2022-07-25T11:53:17.687Z,0.80
2022-07-25T11:55:47.603Z,0.90
2022-07-25T11:58:15.687Z,0.93
2022-07-25T12:00:45.833Z,0.88
2022-07-25T12:03:19.501Z,0.80
2022-07-25T12:05:50.667Z,0.70
2022-07-25T12:08:23.353Z,0.80
2022-07-25T12:10:57.043Z,0.70
2022-07-25T12:13:27.249Z,0.90
2022-07-25T12:15:57.237Z,0.70
2022-07-25T12:18:25.243Z,0.85
2022-07-25T12:20:54.764Z,0.85
2022-07-25T12:23:22.955Z,1.00
2022-07-25T12:25:50.802Z,0.77
2022-07-25T12:28:18.843Z,1.00
2022-07-25T12:30:53.019Z,0.90
2022-07-25T12:33:24.195Z,0.90
2022-07-25T12:35:52.172Z,0.82
2022-07-25T12:38:20.752Z,0.98
2022-07-25T12:40:48.666Z,1.02
2022-07-25T12:43:16.366Z,0.90
2022-07-25T12:45:44.858Z,0.95
2022-07-25T12:48:15.415Z,1.58
2022-07-25T12:50:44.742Z,1.10
2022-07-25T12:53:14.006Z,1.23
2022-07-25T12:55:42.292Z,0.90
2022-07-25T12:58:10.622Z,1.20
2022-07-25T13:00:41.065Z,1.00
2022-07-25T13:03:09.160Z,0.90
2022-07-25T13:05:37.105Z,0.77
2022-07-25T13:08:07.144Z,0.90
2022-07-25T13:10:35.731Z,0.88
2022-07-25T13:13:04.839Z,1.02
2022-07-25T13:15:37.458Z,1.02
2022-07-25T13:18:05.031Z,1.25
2022-07-25T13:20:35.863Z,1.20
2022-07-25T13:23:04.761Z,1.25
2022-07-25T13:25:34.771Z,1.20
2022-07-25T13:28:10.795Z,1.10
2022-07-25T13:30:40.280Z,0.98
2022-07-25T13:33:10.273Z,0.80
2022-07-25T13:35:39.791Z,1.10
2022-07-25T13:38:11.419Z,1.30
2022-07-25T13:40:43.618Z,0.90
2022-07-25T13:43:14.288Z,0.85
2022-07-25T13:45:43.350Z,1.38
2022-07-25T13:50:59.330Z,1.20
2022-07-25T13:53:30.287Z,0.90
2022-07-25T13:56:00.150Z,1.08
2022-07-25T13:58:29.176Z,1.13
2022-07-25T14:00:56.697Z,1.38
2022-07-25T14:03:25.069Z,0.90
2022-07-25T14:05:53.436Z,0.90
2022-07-25T14:08:21.633Z,0.80
2022-07-25T14:10:49.206Z,0.93
2022-07-25T14:13:17.724Z,1.23
2022-07-25T14:15:45.699Z,0.90
2022-07-25T14:18:13.293Z,0.70
2022-07-25T14:20:41.336Z,0.90
2022-07-25T14:23:09.091Z,0.80
2022-07-25T14:25:36.978Z,1.25
2022-07-25T14:28:05.004Z,1.10
2022-07-25T14:30:33.354Z,0.90
2022-07-25T14:33:01.125Z,1.33
2022-07-25T14:35:32.480Z,0.98
2022-07-25T14:38:00.956Z,1.48
2022-07-25T14:40:32.747Z,1.30
2022-07-25T14:43:00.810Z,1.73
2022-07-25T14:45:28.389Z,1.73
2022-07-25T14:47:55.818Z,2.08
2022-07-25T14:50:24.458Z,1.77
2022-07-25T14:52:52.619Z,1.92
2022-07-25T14:55:33.289Z,1.50
2022-07-25T14:58:03.046Z,1.25
2022-07-25T15:00:31.593Z,1.30
2022-07-25T15:02:59.800Z,1.30
2022-07-25T15:05:27.564Z,1.30
2022-07-25T15:07:56.037Z,0.95
2022-07-25T15:10:24.163Z,1.00
2022-07-25T15:13:07.806Z,1.10
2022-07-25T15:15:39.413Z,1.20
2022-07-25T15:18:11.920Z,1.00
2022-07-25T15:20:42.538Z,1.15
2022-07-25T15:23:10.484Z,1.10
2022-07-25T15:26:12.960Z,1.40
2022-07-25T15:28:26.840Z,1.13
2022-07-25T15:30:54.710Z,1.10
2022-07-25T15:33:22.640Z,0.95
2022-07-25T15:35:50.192Z,1.00
2022-07-25T15:38:18.459Z,1.50
2022-07-25T15:40:46.545Z,1.00
2022-07-25T15:43:14.630Z,1.17
2022-07-25T15:45:44.389Z,1.00
2022-07-25T15:48:16.797Z,1.27
2022-07-25T15:50:49.910Z,1.35
2022-07-25T15:53:18.063Z,1.75
2022-07-25T15:55:45.908Z,1.58
2022-07-25T15:58:14.074Z,1.75
2022-07-25T16:00:42.206Z,1.17
2022-07-25T16:03:13.566Z,0.88
2022-07-25T16:05:44.247Z,1.33
2022-07-25T16:08:12.472Z,1.45
2022-07-25T16:10:40.569Z,1.30
2022-07-25T16:13:08.519Z,1.30
2022-07-25T16:15:36.644Z,1.38
2022-07-25T16:18:06.888Z,2.95
2022-07-25T16:20:35.736Z,1.40
2022-07-25T16:23:03.607Z,1.13
2022-07-25T16:25:31.299Z,1.52
2022-07-25T16:28:00.738Z,1.67
2022-07-25T16:30:29.849Z,1.67
2022-07-25T16:32:58.147Z,1.80
2022-07-25T16:35:26.158Z,1.70
2022-07-25T16:37:53.800Z,1.63
2022-07-25T16:40:28.735Z,1.77
2022-07-25T16:42:59.980Z,1.50
2022-07-25T16:45:28.540Z,1.40
2022-07-25T16:47:56.384Z,1.40
2022-07-25T16:50:26.034Z,2.17
2022-07-25T16:52:58.250Z,1.67
2022-07-25T16:55:26.210Z,1.38
2022-07-25T16:57:54.032Z,1.27
2022-07-25T17:00:22.111Z,1.48
2022-07-25T17:02:50.759Z,1.52
2022-07-25T17:05:18.570Z,1.27
2022-07-25T17:07:46.975Z,1.15
2022-07-25T17:10:15.701Z,1.17
2022-07-25T17:12:43.797Z,1.50
2022-07-25T17:15:14.016Z,1.20
2022-07-25T17:17:42.313Z,1.83
2022-07-25T17:20:11.002Z,1.63
2022-07-25T17:22:40.283Z,1.30
2022-07-25T17:25:08.391Z,1.95
2022-07-25T17:27:36.442Z,1.65
2022-07-25T17:30:06.692Z,1.50
2022-07-25T17:32:34.449Z,1.38
2022-07-25T17:35:01.841Z,1.58
2022-07-25T17:37:29.943Z,1.58
2022-07-25T17:40:00.037Z,1.85
2022-07-25T17:42:27.673Z,2.97
2022-07-25T17:45:12.472Z,2.10
2022-07-25T17:47:40.941Z,1.63
2022-07-25T17:50:11.895Z,3.25
2022-07-25T17:52:39.972Z,2.17
2022-07-25T17:55:08.407Z,1.50
2022-07-25T17:57:38.497Z,1.33
2022-07-25T18:00:07.318Z,1.23
2022-07-25T18:02:35.311Z,1.60
2022-07-25T18:05:05.028Z,1.40
2022-07-25T18:07:36.059Z,1.15
2022-07-25T18:10:04.331Z,2.05
2022-07-25T18:12:32.565Z,1.73
2022-07-25T18:14:59.962Z,5.55
2022-07-25T18:17:30.151Z,6.55
2022-07-25T18:20:01.978Z,1.83
2022-07-25T18:22:30.608Z,2.90
2022-07-25T18:27:46.459Z,2.20
2022-07-25T18:30:20.318Z,1.70
2022-07-25T18:32:48.672Z,2.15
2022-07-25T18:35:16.708Z,2.72
2022-07-25T18:37:44.599Z,1.33
2022-07-25T18:40:14.083Z,2.17
2022-07-25T18:42:42.224Z,1.60
2022-07-25T18:45:12.298Z,1.77
2022-07-25T18:47:40.731Z,2.53
2022-07-25T18:50:10.644Z,1.70
2022-07-25T18:52:38.691Z,4.70
2022-07-25T18:55:09.887Z,3.13
2022-07-25T18:57:38.137Z,3.80
2022-07-25T19:00:11.645Z,2.60
2022-07-25T19:02:39.549Z,2.50
2022-07-25T19:05:08.743Z,2.05
2022-07-25T19:07:37.261Z,2.00
2022-07-25T19:10:05.205Z,2.00
2022-07-25T19:12:32.869Z,7.90
2022-07-25T19:15:01.338Z,17.58
2022-07-25T19:17:29.151Z,13.07
2022-07-25T19:19:59.916Z,17.80
2022-07-25T19:22:27.987Z,12.40
2022-07-25T19:24:55.977Z,14.18
2022-07-25T19:27:26.120Z,6.75
2022-07-25T19:29:55.203Z,7.47
2022-07-25T19:32:23.362Z,5.75
2022-07-25T19:34:51.266Z,4.13
2022-07-25T19:37:19.421Z,3.45
2022-07-25T19:39:49.010Z,2.78
2022-07-25T19:42:16.832Z,2.67
2022-07-25T19:44:44.628Z,2.17
2022-07-25T19:47:13.001Z,2.10
2022-07-25T19:49:43.863Z,2.25
2022-07-25T19:52:13.851Z,2.95
2022-07-25T19:54:42.384Z,2.53
2022-07-25T19:57:10.530Z,2.90
2022-07-25T19:59:39.243Z,3.53
2022-07-25T20:02:06.794Z,3.00
2022-07-25T20:04:44.264Z,2.95
2022-07-25T20:07:13.304Z,2.00
2022-07-25T20:09:40.783Z,2.10
2022-07-25T20:12:09.974Z,2.92
2022-07-25T20:14:37.353Z,2.20
2022-07-25T20:17:05.331Z,1.90
2022-07-25T20:19:34.982Z,1.98
2022-07-25T20:22:03.826Z,2.65
2022-07-25T20:24:31.633Z,4.10
2022-07-25T20:26:59.890Z,3.40
2022-07-25T20:29:27.493Z,5.22
2022-07-25T20:31:55.368Z,6.32
2022-07-25T20:34:23.991Z,4.47
2022-07-25T20:36:52.780Z,2.53
2022-07-25T20:39:20.659Z,2.80
2022-07-25T20:41:48.642Z,5.38
2022-07-25T20:44:16.644Z,3.63
2022-07-25T20:46:44.101Z,4.25
2022-07-25T20:49:13.689Z,2.72
2022-07-25T20:51:41.531Z,3.22
2022-07-25T20:54:10.218Z,2.70
2022-07-25T20:56:38.987Z,2.88
2022-07-25T20:59:08.938Z,2.40
2022-07-25T21:01:39.136Z,4.07
2022-07-25T21:04:08.054Z,2.65
2022-07-25T21:06:36.913Z,4.22
2022-07-25T21:09:09.247Z,5.47
2022-07-25T21:11:37.817Z,6.88
2022-07-25T21:14:07.718Z,11.63
2022-07-25T21:16:37.754Z,4.32
2022-07-25T21:19:05.878Z,13.90
2022-07-25T21:21:41.806Z,15.82
2022-07-25T21:24:12.253Z,23.15
2022-07-25T21:26:40.328Z,5.28
2022-07-25T21:29:10.055Z,11.07
2022-07-25T21:31:39.459Z,6.00
2022-07-25T21:34:07.517Z,7.75
2022-07-25T21:36:35.406Z,17.80
2022-07-25T21:39:03.568Z,17.05
2022-07-25T21:41:31.131Z,17.20
2022-07-25T21:43:59.324Z,11.65
2022-07-25T21:46:27.558Z,10.05
2022-07-25T21:49:14.149Z,9.77
2022-07-25T21:51:44.719Z,4.95
2022-07-25T21:54:13.585Z,6.75
2022-07-25T21:56:42.415Z,15.48
2022-07-25T21:59:15.000Z,16.30
2022-07-25T22:04:29.041Z,15.85
2022-07-25T22:06:59.322Z,10.68
2022-07-25T22:09:27.354Z,7.72
2022-07-25T22:11:56.910Z,10.98
2022-07-25T22:14:25.601Z,7.80
2022-07-25T22:16:54.075Z,10.27
2022-07-25T22:19:22.754Z,6.57
2022-07-25T22:21:51.316Z,9.55
2022-07-25T22:24:19.123Z,10.82
2022-07-25T22:26:47.561Z,7.50
2022-07-25T22:29:15.628Z,5.68
2022-07-25T22:31:46.545Z,11.43
2022-07-25T22:34:13.943Z,8.63
2022-07-25T22:36:41.810Z,14.55
2022-07-25T22:39:09.939Z,10.68
2022-07-25T22:41:38.048Z,9.32
2022-07-25T22:44:06.291Z,13.05
2022-07-25T22:46:35.166Z,3.10
2022-07-25T22:49:03.093Z,8.35
2022-07-25T22:51:31.555Z,3.75
2022-07-25T22:54:00.206Z,6.60
2022-07-25T22:56:29.697Z,8.82
2022-07-25T22:58:58.858Z,6.40
2022-07-25T23:01:27.340Z,7.88
2022-07-25T23:03:55.451Z,4.47
2022-07-25T23:06:23.890Z,6.78
2022-07-25T23:08:51.766Z,4.80
2022-07-25T23:11:22.140Z,8.57
2022-07-25T23:13:50.075Z,8.38
2022-07-25T23:16:20.577Z,9.93
2022-07-25T23:18:48.844Z,11.80
2022-07-25T23:21:18.456Z,6.35
2022-07-25T23:23:46.362Z,6.15
2022-07-25T23:26:14.703Z,5.25
2022-07-25T23:28:42.681Z,6.15
2022-07-25T23:31:11.156Z,10.73
2022-07-25T23:33:39.410Z,7.20
2022-07-25T23:36:07.381Z,7.15
2022-07-25T23:38:34.998Z,4.00
2022-07-25T23:41:02.620Z,5.75
2022-07-25T23:43:56.122Z,6.78
2022-07-25T23:46:18.440Z,5.53
2022-07-25T23:48:50.211Z,5.20
2022-07-25T23:51:18.292Z,7.55
2022-07-25T23:53:45.785Z,7.90
2022-07-25T23:56:18.756Z,6.15
2022-07-25T23:58:50.155Z,6.97
